sensor_id;sensor_type;location;lat;lon;timestamp;P1;durP1;ratioP1;P2;durP2;ratioP2
84031;SDS011;74113;46.556;24.570;2024-01-30T00:00:35;6.90;;;2.90;;
84031;SDS011;74113;46.556;24.570;2024-01-30T00:03:23;10.10;;;4.00;;
84031;SDS011;74113;46.556;24.570;2024-01-30T00:05:53;8.80;;;3.80;;
84031;SDS011;74113;46.556;24.570;2024-01-30T00:08:26;7.90;;;3.60;;
84031;SDS011;74113;46.556;24.570;2024-01-30T00:10:54;8.80;;;3.60;;
84031;SDS011;74113;46.556;24.570;2024-01-30T00:13:23;7.80;;;2.20;;
84031;SDS011;74113;46.556;24.570;2024-01-30T00:15:51;8.00;;;3.10;;
84031;SDS011;74113;46.556;24.570;2024-01-30T00:18:21;6.10;;;2.00;;
84031;SDS011;74113;46.556;24.570;2024-01-30T00:20:49;6.10;;;2.30;;
84031;SDS011;74113;46.556;24.570;2024-01-30T00:25:46;5.20;;;2.50;;
84031;SDS011;74113;46.556;24.570;2024-01-30T00:28:14;6.10;;;2.20;;
84031;SDS011;74113;46.556;24.570;2024-01-30T00:30:43;6.10;;;2.40;;
84031;SDS011;74113;46.556;24.570;2024-01-30T00:35:40;7.60;;;2.90;;
84031;SDS011;74113;46.556;24.570;2024-01-30T00:38:09;6.40;;;2.50;;
84031;SDS011;74113;46.556;24.570;2024-01-30T00:40:38;5.70;;;2.50;;
84031;SDS011;74113;46.556;24.570;2024-01-30T00:45:35;9.60;;;4.60;;
84031;SDS011;74113;46.556;24.570;2024-01-30T00:48:04;6.70;;;3.00;;
84031;SDS011;74113;46.556;24.570;2024-01-30T00:50:33;7.40;;;3.10;;
84031;SDS011;74113;46.556;24.570;2024-01-30T00:53:02;5.10;;;1.70;;
84031;SDS011;74113;46.556;24.570;2024-01-30T00:55:31;6.10;;;2.00;;
84031;SDS011;74113;46.556;24.570;2024-01-30T00:57:59;5.40;;;2.10;;
84031;SDS011;74113;46.556;24.570;2024-01-30T01:00:28;7.90;;;2.90;;
84031;SDS011;74113;46.556;24.570;2024-01-30T01:02:57;5.10;;;4.60;;
84031;SDS011;74113;46.556;24.570;2024-01-30T01:05:27;6.60;;;2.70;;
84031;SDS011;74113;46.556;24.570;2024-01-30T01:07:55;6.60;;;2.80;;
84031;SDS011;74113;46.556;24.570;2024-01-30T01:12:53;8.00;;;4.70;;
84031;SDS011;74113;46.556;24.570;2024-01-30T01:15:21;8.00;;;4.30;;
84031;SDS011;74113;46.556;24.570;2024-01-30T01:17:51;6.80;;;3.50;;
84031;SDS011;74113;46.556;24.570;2024-01-30T01:20:20;8.00;;;4.20;;
84031;SDS011;74113;46.556;24.570;2024-01-30T01:22:49;7.70;;;2.30;;
84031;SDS011;74113;46.556;24.570;2024-01-30T01:25:18;7.40;;;3.20;;
84031;SDS011;74113;46.556;24.570;2024-01-30T01:30:20;6.00;;;2.40;;
84031;SDS011;74113;46.556;24.570;2024-01-30T01:32:50;7.60;;;3.60;;
84031;SDS011;74113;46.556;24.570;2024-01-30T01:35:23;7.20;;;2.30;;
84031;SDS011;74113;46.556;24.570;2024-01-30T01:37:55;9.90;;;5.60;;
84031;SDS011;74113;46.556;24.570;2024-01-30T01:40:26;9.80;;;4.30;;
84031;SDS011;74113;46.556;24.570;2024-01-30T01:42:56;6.80;;;2.80;;
84031;SDS011;74113;46.556;24.570;2024-01-30T01:45:25;9.80;;;4.40;;
84031;SDS011;74113;46.556;24.570;2024-01-30T01:50:23;8.30;;;3.50;;
84031;SDS011;74113;46.556;24.570;2024-01-30T01:52:53;10.40;;;3.50;;
84031;SDS011;74113;46.556;24.570;2024-01-30T01:55:22;12.80;;;4.20;;
84031;SDS011;74113;46.556;24.570;2024-01-30T01:57:52;8.40;;;3.30;;
84031;SDS011;74113;46.556;24.570;2024-01-30T02:00:22;6.50;;;3.00;;
84031;SDS011;74113;46.556;24.570;2024-01-30T02:02:51;6.60;;;1.90;;
84031;SDS011;74113;46.556;24.570;2024-01-30T02:05:22;5.40;;;2.30;;
84031;SDS011;74113;46.556;24.570;2024-01-30T02:07:53;6.60;;;2.30;;
84031;SDS011;74113;46.556;24.570;2024-01-30T02:10:23;5.10;;;2.60;;
84031;SDS011;74113;46.556;24.570;2024-01-30T02:12:52;5.10;;;2.20;;
84031;SDS011;74113;46.556;24.570;2024-01-30T02:15:21;7.30;;;2.00;;
84031;SDS011;74113;46.556;24.570;2024-01-30T02:17:51;6.20;;;2.20;;
84031;SDS011;74113;46.556;24.570;2024-01-30T02:22:48;6.80;;;2.00;;
84031;SDS011;74113;46.556;24.570;2024-01-30T02:25:17;7.50;;;3.30;;
84031;SDS011;74113;46.556;24.570;2024-01-30T02:27:45;6.50;;;3.10;;
84031;SDS011;74113;46.556;24.570;2024-01-30T02:32:43;8.70;;;3.40;;
84031;SDS011;74113;46.556;24.570;2024-01-30T02:35:11;9.30;;;4.10;;
84031;SDS011;74113;46.556;24.570;2024-01-30T02:37:40;8.60;;;3.40;;
84031;SDS011;74113;46.556;24.570;2024-01-30T02:40:09;8.20;;;3.10;;
84031;SDS011;74113;46.556;24.570;2024-01-30T02:42:39;7.50;;;2.70;;
84031;SDS011;74113;46.556;24.570;2024-01-30T02:45:07;7.30;;;2.60;;
84031;SDS011;74113;46.556;24.570;2024-01-30T02:47:37;7.00;;;3.70;;
84031;SDS011;74113;46.556;24.570;2024-01-30T02:50:06;5.20;;;2.30;;
84031;SDS011;74113;46.556;24.570;2024-01-30T02:52:35;8.60;;;4.10;;
84031;SDS011;74113;46.556;24.570;2024-01-30T02:55:03;6.60;;;2.30;;
84031;SDS011;74113;46.556;24.570;2024-01-30T02:57:32;6.70;;;2.50;;
84031;SDS011;74113;46.556;24.570;2024-01-30T03:00:02;8.00;;;3.70;;
84031;SDS011;74113;46.556;24.570;2024-01-30T03:02:33;6.70;;;1.70;;
84031;SDS011;74113;46.556;24.570;2024-01-30T03:05:02;11.90;;;3.80;;
84031;SDS011;74113;46.556;24.570;2024-01-30T03:07:31;8.50;;;3.40;;
84031;SDS011;74113;46.556;24.570;2024-01-30T03:10:03;7.20;;;3.30;;
84031;SDS011;74113;46.556;24.570;2024-01-30T03:12:34;8.10;;;2.60;;
84031;SDS011;74113;46.556;24.570;2024-01-30T03:15:03;7.10;;;1.80;;
84031;SDS011;74113;46.556;24.570;2024-01-30T03:17:32;5.50;;;2.40;;
84031;SDS011;74113;46.556;24.570;2024-01-30T03:20:00;12.20;;;2.70;;
84031;SDS011;74113;46.556;24.570;2024-01-30T03:22:29;4.90;;;2.20;;
84031;SDS011;74113;46.556;24.570;2024-01-30T03:24:58;6.60;;;2.50;;
84031;SDS011;74113;46.556;24.570;2024-01-30T03:27:26;6.10;;;2.30;;
84031;SDS011;74113;46.556;24.570;2024-01-30T03:32:23;7.00;;;2.30;;
84031;SDS011;74113;46.556;24.570;2024-01-30T03:34:52;8.30;;;2.60;;
84031;SDS011;74113;46.556;24.570;2024-01-30T03:37:22;7.70;;;2.60;;
84031;SDS011;74113;46.556;24.570;2024-01-30T03:39:51;8.80;;;3.00;;
84031;SDS011;74113;46.556;24.570;2024-01-30T03:42:20;7.70;;;3.10;;
84031;SDS011;74113;46.556;24.570;2024-01-30T03:44:49;9.70;;;3.10;;
84031;SDS011;74113;46.556;24.570;2024-01-30T03:47:21;9.30;;;3.10;;
84031;SDS011;74113;46.556;24.570;2024-01-30T03:49:50;10.30;;;3.70;;
84031;SDS011;74113;46.556;24.570;2024-01-30T03:52:19;7.60;;;3.60;;
84031;SDS011;74113;46.556;24.570;2024-01-30T03:54:47;9.10;;;3.30;;
84031;SDS011;74113;46.556;24.570;2024-01-30T03:59:45;7.20;;;4.30;;
84031;SDS011;74113;46.556;24.570;2024-01-30T04:02:13;7.30;;;2.40;;
84031;SDS011;74113;46.556;24.570;2024-01-30T04:04:43;9.40;;;2.60;;
84031;SDS011;74113;46.556;24.570;2024-01-30T04:07:11;5.80;;;1.70;;
84031;SDS011;74113;46.556;24.570;2024-01-30T04:09:40;6.40;;;2.00;;
84031;SDS011;74113;46.556;24.570;2024-01-30T04:12:09;8.70;;;3.40;;
84031;SDS011;74113;46.556;24.570;2024-01-30T04:14:38;7.40;;;2.70;;
84031;SDS011;74113;46.556;24.570;2024-01-30T04:17:07;6.70;;;2.30;;
84031;SDS011;74113;46.556;24.570;2024-01-30T04:19:39;4.20;;;1.60;;
84031;SDS011;74113;46.556;24.570;2024-01-30T04:22:08;9.50;;;3.90;;
84031;SDS011;74113;46.556;24.570;2024-01-30T04:24:38;8.80;;;3.40;;
84031;SDS011;74113;46.556;24.570;2024-01-30T04:27:07;12.10;;;1.90;;
84031;SDS011;74113;46.556;24.570;2024-01-30T04:29:35;5.00;;;2.40;;
84031;SDS011;74113;46.556;24.570;2024-01-30T04:32:03;8.20;;;3.60;;
84031;SDS011;74113;46.556;24.570;2024-01-30T04:34:33;7.70;;;2.80;;
84031;SDS011;74113;46.556;24.570;2024-01-30T04:37:02;5.60;;;1.90;;
84031;SDS011;74113;46.556;24.570;2024-01-30T04:39:33;6.50;;;1.50;;
84031;SDS011;74113;46.556;24.570;2024-01-30T04:42:01;5.40;;;1.50;;
84031;SDS011;74113;46.556;24.570;2024-01-30T04:44:34;4.40;;;2.10;;
84031;SDS011;74113;46.556;24.570;2024-01-30T04:49:33;5.80;;;2.70;;
84031;SDS011;74113;46.556;24.570;2024-01-30T04:52:01;4.50;;;2.20;;
84031;SDS011;74113;46.556;24.570;2024-01-30T04:54:30;6.80;;;2.90;;
84031;SDS011;74113;46.556;24.570;2024-01-30T04:57:00;5.30;;;2.10;;
84031;SDS011;74113;46.556;24.570;2024-01-30T04:59:30;7.20;;;2.70;;
84031;SDS011;74113;46.556;24.570;2024-01-30T05:04:27;4.40;;;1.20;;
84031;SDS011;74113;46.556;24.570;2024-01-30T05:06:56;4.60;;;1.80;;
84031;SDS011;74113;46.556;24.570;2024-01-30T05:11:53;3.70;;;1.00;;
84031;SDS011;74113;46.556;24.570;2024-01-30T05:14:21;5.30;;;1.50;;
84031;SDS011;74113;46.556;24.570;2024-01-30T05:16:50;4.20;;;2.80;;
84031;SDS011;74113;46.556;24.570;2024-01-30T05:19:19;5.20;;;2.30;;
84031;SDS011;74113;46.556;24.570;2024-01-30T05:21:50;6.10;;;1.80;;
84031;SDS011;74113;46.556;24.570;2024-01-30T05:24:18;5.60;;;2.20;;
84031;SDS011;74113;46.556;24.570;2024-01-30T05:26:48;4.10;;;1.20;;
84031;SDS011;74113;46.556;24.570;2024-01-30T05:29:19;4.90;;;1.50;;
84031;SDS011;74113;46.556;24.570;2024-01-30T05:31:48;5.50;;;2.80;;
84031;SDS011;74113;46.556;24.570;2024-01-30T05:34:16;5.70;;;1.90;;
84031;SDS011;74113;46.556;24.570;2024-01-30T05:36:45;6.40;;;3.30;;
84031;SDS011;74113;46.556;24.570;2024-01-30T05:39:15;3.80;;;2.20;;
84031;SDS011;74113;46.556;24.570;2024-01-30T05:44:13;4.30;;;1.70;;
84031;SDS011;74113;46.556;24.570;2024-01-30T05:46:46;6.00;;;2.30;;
84031;SDS011;74113;46.556;24.570;2024-01-30T05:49:16;5.00;;;3.40;;
84031;SDS011;74113;46.556;24.570;2024-01-30T05:51:46;4.80;;;2.30;;
84031;SDS011;74113;46.556;24.570;2024-01-30T05:54:16;7.70;;;2.50;;
84031;SDS011;74113;46.556;24.570;2024-01-30T05:56:48;3.70;;;1.70;;
84031;SDS011;74113;46.556;24.570;2024-01-30T05:59:17;4.10;;;1.50;;
84031;SDS011;74113;46.556;24.570;2024-01-30T06:01:46;4.60;;;2.40;;
84031;SDS011;74113;46.556;24.570;2024-01-30T06:04:24;4.20;;;2.00;;
84031;SDS011;74113;46.556;24.570;2024-01-30T06:06:53;6.00;;;1.90;;
84031;SDS011;74113;46.556;24.570;2024-01-30T06:09:23;4.80;;;1.70;;
84031;SDS011;74113;46.556;24.570;2024-01-30T06:11:52;5.60;;;1.50;;
84031;SDS011;74113;46.556;24.570;2024-01-30T06:14:23;5.70;;;2.20;;
84031;SDS011;74113;46.556;24.570;2024-01-30T06:16:52;6.20;;;2.00;;
84031;SDS011;74113;46.556;24.570;2024-01-30T06:19:21;7.00;;;1.90;;
84031;SDS011;74113;46.556;24.570;2024-01-30T06:21:51;6.10;;;2.90;;
84031;SDS011;74113;46.556;24.570;2024-01-30T06:24:20;7.10;;;3.20;;
84031;SDS011;74113;46.556;24.570;2024-01-30T06:26:51;7.90;;;3.10;;
84031;SDS011;74113;46.556;24.570;2024-01-30T06:29:22;7.60;;;3.20;;
84031;SDS011;74113;46.556;24.570;2024-01-30T06:31:55;9.50;;;4.00;;
84031;SDS011;74113;46.556;24.570;2024-01-30T06:34:26;9.20;;;3.20;;
84031;SDS011;74113;46.556;24.570;2024-01-30T06:36:55;5.70;;;2.30;;
84031;SDS011;74113;46.556;24.570;2024-01-30T06:39:24;7.60;;;3.10;;
84031;SDS011;74113;46.556;24.570;2024-01-30T06:41:53;6.30;;;2.00;;
84031;SDS011;74113;46.556;24.570;2024-01-30T06:44:23;9.20;;;3.90;;
84031;SDS011;74113;46.556;24.570;2024-01-30T06:46:52;7.70;;;2.80;;
84031;SDS011;74113;46.556;24.570;2024-01-30T06:49:20;8.10;;;2.90;;
84031;SDS011;74113;46.556;24.570;2024-01-30T06:51:52;7.00;;;2.60;;
84031;SDS011;74113;46.556;24.570;2024-01-30T06:54:22;9.80;;;4.00;;
84031;SDS011;74113;46.556;24.570;2024-01-30T06:56:54;9.10;;;4.30;;
84031;SDS011;74113;46.556;24.570;2024-01-30T06:59:24;11.50;;;5.40;;
84031;SDS011;74113;46.556;24.570;2024-01-30T07:01:53;10.80;;;4.50;;
84031;SDS011;74113;46.556;24.570;2024-01-30T07:04:24;9.90;;;4.10;;
84031;SDS011;74113;46.556;24.570;2024-01-30T07:06:53;10.00;;;5.30;;
84031;SDS011;74113;46.556;24.570;2024-01-30T07:09:22;9.20;;;3.60;;
84031;SDS011;74113;46.556;24.570;2024-01-30T07:11:51;10.30;;;5.40;;
84031;SDS011;74113;46.556;24.570;2024-01-30T07:14:24;10.70;;;4.10;;
84031;SDS011;74113;46.556;24.570;2024-01-30T07:16:53;8.40;;;4.60;;
84031;SDS011;74113;46.556;24.570;2024-01-30T07:19:23;9.40;;;4.40;;
84031;SDS011;74113;46.556;24.570;2024-01-30T07:21:56;10.60;;;4.50;;
84031;SDS011;74113;46.556;24.570;2024-01-30T07:24:25;9.20;;;3.70;;
84031;SDS011;74113;46.556;24.570;2024-01-30T07:26:57;10.90;;;3.10;;
84031;SDS011;74113;46.556;24.570;2024-01-30T07:29:27;12.00;;;4.80;;
84031;SDS011;74113;46.556;24.570;2024-01-30T07:31:56;10.10;;;4.10;;
84031;SDS011;74113;46.556;24.570;2024-01-30T07:36:53;10.10;;;5.60;;
84031;SDS011;74113;46.556;24.570;2024-01-30T07:39:25;12.90;;;5.60;;
84031;SDS011;74113;46.556;24.570;2024-01-30T07:42:00;9.90;;;4.50;;
84031;SDS011;74113;46.556;24.570;2024-01-30T07:44:33;10.70;;;4.50;;
84031;SDS011;74113;46.556;24.570;2024-01-30T07:47:07;11.40;;;5.30;;
84031;SDS011;74113;46.556;24.570;2024-01-30T07:49:36;11.10;;;4.30;;
84031;SDS011;74113;46.556;24.570;2024-01-30T07:52:06;12.00;;;3.60;;
84031;SDS011;74113;46.556;24.570;2024-01-30T07:54:41;8.70;;;2.90;;
84031;SDS011;74113;46.556;24.570;2024-01-30T07:57:12;10.20;;;3.50;;
84031;SDS011;74113;46.556;24.570;2024-01-30T07:59:42;11.90;;;6.00;;
84031;SDS011;74113;46.556;24.570;2024-01-30T08:02:20;10.30;;;4.60;;
84031;SDS011;74113;46.556;24.570;2024-01-30T08:04:49;14.80;;;6.70;;
84031;SDS011;74113;46.556;24.570;2024-01-30T08:07:18;11.80;;;5.60;;
84031;SDS011;74113;46.556;24.570;2024-01-30T08:09:51;14.80;;;5.30;;
84031;SDS011;74113;46.556;24.570;2024-01-30T08:12:20;12.40;;;6.10;;
84031;SDS011;74113;46.556;24.570;2024-01-30T08:14:49;12.70;;;5.20;;
84031;SDS011;74113;46.556;24.570;2024-01-30T08:17:18;17.20;;;7.30;;
84031;SDS011;74113;46.556;24.570;2024-01-30T08:19:47;20.10;;;12.30;;
84031;SDS011;74113;46.556;24.570;2024-01-30T08:22:20;19.10;;;6.90;;
84031;SDS011;74113;46.556;24.570;2024-01-30T08:24:51;13.30;;;5.10;;
84031;SDS011;74113;46.556;24.570;2024-01-30T08:27:21;15.20;;;6.60;;
84031;SDS011;74113;46.556;24.570;2024-01-30T08:29:50;9.40;;;3.70;;
84031;SDS011;74113;46.556;24.570;2024-01-30T08:32:19;7.90;;;2.80;;
84031;SDS011;74113;46.556;24.570;2024-01-30T08:34:48;7.00;;;2.70;;
84031;SDS011;74113;46.556;24.570;2024-01-30T08:37:17;8.90;;;2.60;;
84031;SDS011;74113;46.556;24.570;2024-01-30T08:39:46;10.40;;;3.60;;
84031;SDS011;74113;46.556;24.570;2024-01-30T08:42:17;9.70;;;3.70;;
84031;SDS011;74113;46.556;24.570;2024-01-30T08:44:51;15.80;;;6.70;;
84031;SDS011;74113;46.556;24.570;2024-01-30T08:47:21;10.60;;;4.70;;
84031;SDS011;74113;46.556;24.570;2024-01-30T08:49:51;14.90;;;6.40;;
84031;SDS011;74113;46.556;24.570;2024-01-30T08:52:22;16.90;;;7.80;;
84031;SDS011;74113;46.556;24.570;2024-01-30T08:54:51;11.20;;;5.60;;
84031;SDS011;74113;46.556;24.570;2024-01-30T08:57:20;10.40;;;4.90;;
84031;SDS011;74113;46.556;24.570;2024-01-30T08:59:52;12.20;;;6.40;;
84031;SDS011;74113;46.556;24.570;2024-01-30T09:02:22;14.20;;;7.40;;
84031;SDS011;74113;46.556;24.570;2024-01-30T09:04:53;9.10;;;4.50;;
84031;SDS011;74113;46.556;24.570;2024-01-30T09:07:22;9.90;;;4.10;;
84031;SDS011;74113;46.556;24.570;2024-01-30T09:09:51;9.30;;;4.50;;
84031;SDS011;74113;46.556;24.570;2024-01-30T09:12:22;9.00;;;4.20;;
84031;SDS011;74113;46.556;24.570;2024-01-30T09:14:57;8.90;;;3.70;;
84031;SDS011;74113;46.556;24.570;2024-01-30T09:20:01;6.30;;;3.40;;
84031;SDS011;74113;46.556;24.570;2024-01-30T09:26:57;11.00;;;5.20;;
84031;SDS011;74113;46.556;24.570;2024-01-30T09:29:27;9.80;;;3.60;;
84031;SDS011;74113;46.556;24.570;2024-01-30T09:31:57;11.20;;;6.10;;
84031;SDS011;74113;46.556;24.570;2024-01-30T09:34:26;12.50;;;5.50;;
84031;SDS011;74113;46.556;24.570;2024-01-30T09:36:58;13.50;;;6.60;;
84031;SDS011;74113;46.556;24.570;2024-01-30T09:39:28;13.00;;;6.60;;
84031;SDS011;74113;46.556;24.570;2024-01-30T09:42:01;7.60;;;3.30;;
84031;SDS011;74113;46.556;24.570;2024-01-30T09:44:42;9.30;;;4.10;;
84031;SDS011;74113;46.556;24.570;2024-01-30T09:47:12;11.30;;;7.30;;
84031;SDS011;74113;46.556;24.570;2024-01-30T09:49:44;7.90;;;4.30;;
84031;SDS011;74113;46.556;24.570;2024-01-30T09:52:13;12.00;;;5.40;;
84031;SDS011;74113;46.556;24.570;2024-01-30T09:54:43;10.80;;;3.80;;
84031;SDS011;74113;46.556;24.570;2024-01-30T09:57:13;14.70;;;6.10;;
84031;SDS011;74113;46.556;24.570;2024-01-30T09:59:44;9.80;;;4.10;;
84031;SDS011;74113;46.556;24.570;2024-01-30T10:02:13;11.10;;;4.60;;
84031;SDS011;74113;46.556;24.570;2024-01-30T10:04:44;11.10;;;5.20;;
84031;SDS011;74113;46.556;24.570;2024-01-30T10:07:17;9.90;;;4.70;;
84031;SDS011;74113;46.556;24.570;2024-01-30T10:09:47;10.50;;;4.60;;
84031;SDS011;74113;46.556;24.570;2024-01-30T10:12:15;8.40;;;4.50;;
84031;SDS011;74113;46.556;24.570;2024-01-30T10:14:46;6.80;;;4.60;;
84031;SDS011;74113;46.556;24.570;2024-01-30T10:17:15;7.20;;;3.70;;
84031;SDS011;74113;46.556;24.570;2024-01-30T10:20:00;8.60;;;3.40;;
84031;SDS011;74113;46.556;24.570;2024-01-30T10:22:32;6.40;;;2.70;;
84031;SDS011;74113;46.556;24.570;2024-01-30T10:25:01;6.30;;;3.90;;
84031;SDS011;74113;46.556;24.570;2024-01-30T10:27:33;7.00;;;3.40;;
84031;SDS011;74113;46.556;24.570;2024-01-30T10:30:03;8.90;;;4.00;;
84031;SDS011;74113;46.556;24.570;2024-01-30T10:32:32;7.10;;;3.90;;
84031;SDS011;74113;46.556;24.570;2024-01-30T10:35:01;8.30;;;3.70;;
84031;SDS011;74113;46.556;24.570;2024-01-30T10:37:31;7.50;;;2.90;;
84031;SDS011;74113;46.556;24.570;2024-01-30T10:40:02;9.00;;;4.00;;
84031;SDS011;74113;46.556;24.570;2024-01-30T10:42:36;7.00;;;3.70;;
84031;SDS011;74113;46.556;24.570;2024-01-30T10:45:10;7.80;;;3.80;;
84031;SDS011;74113;46.556;24.570;2024-01-30T10:47:49;8.10;;;4.20;;
84031;SDS011;74113;46.556;24.570;2024-01-30T10:50:18;6.10;;;2.90;;
84031;SDS011;74113;46.556;24.570;2024-01-30T10:52:50;7.00;;;3.80;;
84031;SDS011;74113;46.556;24.570;2024-01-30T10:55:19;10.00;;;3.60;;
84031;SDS011;74113;46.556;24.570;2024-01-30T10:57:52;7.60;;;2.80;;
84031;SDS011;74113;46.556;24.570;2024-01-30T11:00:23;9.10;;;4.20;;
84031;SDS011;74113;46.556;24.570;2024-01-30T11:02:57;9.00;;;3.90;;
84031;SDS011;74113;46.556;24.570;2024-01-30T11:05:28;5.10;;;2.40;;
84031;SDS011;74113;46.556;24.570;2024-01-30T11:08:13;6.00;;;2.80;;
84031;SDS011;74113;46.556;24.570;2024-01-30T11:10:46;4.40;;;2.00;;
84031;SDS011;74113;46.556;24.570;2024-01-30T11:13:15;7.30;;;3.80;;
84031;SDS011;74113;46.556;24.570;2024-01-30T11:15:44;4.90;;;2.40;;
84031;SDS011;74113;46.556;24.570;2024-01-30T11:18:27;5.00;;;3.00;;
84031;SDS011;74113;46.556;24.570;2024-01-30T11:21:00;5.40;;;2.50;;
84031;SDS011;74113;46.556;24.570;2024-01-30T11:23:33;5.50;;;2.40;;
84031;SDS011;74113;46.556;24.570;2024-01-30T11:26:04;5.80;;;3.20;;
84031;SDS011;74113;46.556;24.570;2024-01-30T11:28:33;6.50;;;3.20;;
84031;SDS011;74113;46.556;24.570;2024-01-30T11:31:05;7.10;;;3.80;;
84031;SDS011;74113;46.556;24.570;2024-01-30T11:33:35;6.20;;;2.30;;
84031;SDS011;74113;46.556;24.570;2024-01-30T11:36:05;7.60;;;2.90;;
84031;SDS011;74113;46.556;24.570;2024-01-30T11:38:36;6.10;;;3.60;;
84031;SDS011;74113;46.556;24.570;2024-01-30T11:41:05;6.10;;;3.90;;
84031;SDS011;74113;46.556;24.570;2024-01-30T11:43:34;5.20;;;2.70;;
84031;SDS011;74113;46.556;24.570;2024-01-30T11:46:05;5.10;;;2.10;;
84031;SDS011;74113;46.556;24.570;2024-01-30T11:48:35;4.80;;;1.80;;
84031;SDS011;74113;46.556;24.570;2024-01-30T11:51:05;3.40;;;1.30;;
84031;SDS011;74113;46.556;24.570;2024-01-30T11:53:35;3.50;;;1.00;;
84031;SDS011;74113;46.556;24.570;2024-01-30T11:56:08;2.60;;;1.10;;
84031;SDS011;74113;46.556;24.570;2024-01-30T11:58:37;2.80;;;1.10;;
84031;SDS011;74113;46.556;24.570;2024-01-30T12:01:11;3.90;;;1.60;;
84031;SDS011;74113;46.556;24.570;2024-01-30T12:03:42;5.20;;;2.10;;
84031;SDS011;74113;46.556;24.570;2024-01-30T12:06:18;5.40;;;3.40;;
84031;SDS011;74113;46.556;24.570;2024-01-30T12:08:57;4.60;;;2.30;;
84031;SDS011;74113;46.556;24.570;2024-01-30T12:11:29;4.50;;;2.20;;
84031;SDS011;74113;46.556;24.570;2024-01-30T12:14:00;5.20;;;2.20;;
84031;SDS011;74113;46.556;24.570;2024-01-30T12:16:29;5.80;;;3.30;;
84031;SDS011;74113;46.556;24.570;2024-01-30T12:18:59;5.60;;;2.40;;
84031;SDS011;74113;46.556;24.570;2024-01-30T12:21:32;5.70;;;2.80;;
84031;SDS011;74113;46.556;24.570;2024-01-30T12:24:02;4.20;;;1.80;;
84031;SDS011;74113;46.556;24.570;2024-01-30T12:26:31;4.70;;;2.50;;
84031;SDS011;74113;46.556;24.570;2024-01-30T12:29:00;4.00;;;2.10;;
84031;SDS011;74113;46.556;24.570;2024-01-30T12:31:32;4.20;;;1.90;;
84031;SDS011;74113;46.556;24.570;2024-01-30T12:34:02;3.90;;;2.00;;
84031;SDS011;74113;46.556;24.570;2024-01-30T12:36:30;3.90;;;1.20;;
84031;SDS011;74113;46.556;24.570;2024-01-30T12:39:00;3.00;;;1.30;;
84031;SDS011;74113;46.556;24.570;2024-01-30T12:41:30;3.00;;;1.50;;
84031;SDS011;74113;46.556;24.570;2024-01-30T12:44:00;3.80;;;1.20;;
84031;SDS011;74113;46.556;24.570;2024-01-30T12:46:30;4.00;;;2.50;;
84031;SDS011;74113;46.556;24.570;2024-01-30T12:49:00;3.80;;;1.70;;
84031;SDS011;74113;46.556;24.570;2024-01-30T12:51:29;4.00;;;2.90;;
84031;SDS011;74113;46.556;24.570;2024-01-30T12:53:58;3.00;;;1.30;;
84031;SDS011;74113;46.556;24.570;2024-01-30T12:56:26;3.90;;;0.90;;
84031;SDS011;74113;46.556;24.570;2024-01-30T12:58:55;2.40;;;0.40;;
84031;SDS011;74113;46.556;24.570;2024-01-30T13:01:23;2.60;;;1.50;;
84031;SDS011;74113;46.556;24.570;2024-01-30T13:03:54;4.10;;;1.20;;
84031;SDS011;74113;46.556;24.570;2024-01-30T13:06:25;2.60;;;0.80;;
84031;SDS011;74113;46.556;24.570;2024-01-30T13:09:01;4.40;;;1.20;;
84031;SDS011;74113;46.556;24.570;2024-01-30T13:11:30;3.60;;;2.00;;
84031;SDS011;74113;46.556;24.570;2024-01-30T13:13:59;3.80;;;1.50;;
84031;SDS011;74113;46.556;24.570;2024-01-30T13:16:28;3.90;;;1.70;;
84031;SDS011;74113;46.556;24.570;2024-01-30T13:18:57;3.70;;;1.00;;
84031;SDS011;74113;46.556;24.570;2024-01-30T13:21:26;4.40;;;1.50;;
84031;SDS011;74113;46.556;24.570;2024-01-30T13:23:54;3.40;;;1.20;;
84031;SDS011;74113;46.556;24.570;2024-01-30T13:26:23;3.50;;;1.90;;
84031;SDS011;74113;46.556;24.570;2024-01-30T13:28:53;6.30;;;2.60;;
84031;SDS011;74113;46.556;24.570;2024-01-30T13:31:22;5.90;;;2.30;;
84031;SDS011;74113;46.556;24.570;2024-01-30T13:33:51;5.40;;;2.90;;
84031;SDS011;74113;46.556;24.570;2024-01-30T13:36:20;4.00;;;2.70;;
84031;SDS011;74113;46.556;24.570;2024-01-30T13:38:50;4.00;;;1.30;;
84031;SDS011;74113;46.556;24.570;2024-01-30T13:41:20;5.20;;;2.80;;
84031;SDS011;74113;46.556;24.570;2024-01-30T13:43:50;4.50;;;1.70;;
84031;SDS011;74113;46.556;24.570;2024-01-30T13:46:19;4.70;;;2.20;;
84031;SDS011;74113;46.556;24.570;2024-01-30T13:48:49;5.90;;;2.30;;
84031;SDS011;74113;46.556;24.570;2024-01-30T13:51:18;4.60;;;2.50;;
84031;SDS011;74113;46.556;24.570;2024-01-30T13:53:46;4.80;;;2.30;;
84031;SDS011;74113;46.556;24.570;2024-01-30T13:56:16;6.10;;;2.30;;
84031;SDS011;74113;46.556;24.570;2024-01-30T13:58:50;4.80;;;2.20;;
84031;SDS011;74113;46.556;24.570;2024-01-30T14:01:23;7.10;;;5.00;;
84031;SDS011;74113;46.556;24.570;2024-01-30T14:03:57;5.20;;;2.10;;
84031;SDS011;74113;46.556;24.570;2024-01-30T14:06:54;3.90;;;1.70;;
84031;SDS011;74113;46.556;24.570;2024-01-30T14:09:32;9.20;;;4.10;;
84031;SDS011;74113;46.556;24.570;2024-01-30T14:12:03;5.10;;;2.40;;
84031;SDS011;74113;46.556;24.570;2024-01-30T14:14:34;6.70;;;3.00;;
84031;SDS011;74113;46.556;24.570;2024-01-30T14:17:03;8.90;;;2.90;;
84031;SDS011;74113;46.556;24.570;2024-01-30T14:19:35;6.40;;;2.90;;
84031;SDS011;74113;46.556;24.570;2024-01-30T14:22:07;6.50;;;3.00;;
84031;SDS011;74113;46.556;24.570;2024-01-30T14:24:36;4.20;;;3.60;;
84031;SDS011;74113;46.556;24.570;2024-01-30T14:27:06;5.00;;;2.40;;
84031;SDS011;74113;46.556;24.570;2024-01-30T14:29:37;5.30;;;2.40;;
84031;SDS011;74113;46.556;24.570;2024-01-30T14:32:06;4.60;;;2.70;;
84031;SDS011;74113;46.556;24.570;2024-01-30T14:34:35;5.60;;;2.00;;
84031;SDS011;74113;46.556;24.570;2024-01-30T14:37:04;4.00;;;2.20;;
84031;SDS011;74113;46.556;24.570;2024-01-30T14:39:34;7.90;;;4.10;;
84031;SDS011;74113;46.556;24.570;2024-01-30T14:42:07;6.30;;;2.30;;
84031;SDS011;74113;46.556;24.570;2024-01-30T14:44:35;6.60;;;3.00;;
84031;SDS011;74113;46.556;24.570;2024-01-30T14:47:05;7.00;;;2.30;;
84031;SDS011;74113;46.556;24.570;2024-01-30T14:49:34;7.90;;;3.60;;
84031;SDS011;74113;46.556;24.570;2024-01-30T14:52:04;5.40;;;1.90;;
84031;SDS011;74113;46.556;24.570;2024-01-30T14:54:34;4.00;;;2.50;;
84031;SDS011;74113;46.556;24.570;2024-01-30T14:57:03;4.00;;;1.80;;
84031;SDS011;74113;46.556;24.570;2024-01-30T14:59:32;3.40;;;1.40;;
84031;SDS011;74113;46.556;24.570;2024-01-30T15:02:02;4.90;;;1.40;;
84031;SDS011;74113;46.556;24.570;2024-01-30T15:04:32;2.80;;;1.30;;
84031;SDS011;74113;46.556;24.570;2024-01-30T15:07:01;4.10;;;0.90;;
84031;SDS011;74113;46.556;24.570;2024-01-30T15:09:30;5.00;;;1.90;;
84031;SDS011;74113;46.556;24.570;2024-01-30T15:12:00;5.00;;;1.70;;
84031;SDS011;74113;46.556;24.570;2024-01-30T15:14:28;4.80;;;2.20;;
84031;SDS011;74113;46.556;24.570;2024-01-30T15:16:58;4.30;;;2.20;;
84031;SDS011;74113;46.556;24.570;2024-01-30T15:19:27;4.00;;;1.80;;
84031;SDS011;74113;46.556;24.570;2024-01-30T15:21:56;3.10;;;1.10;;
84031;SDS011;74113;46.556;24.570;2024-01-30T15:24:25;5.10;;;1.90;;
84031;SDS011;74113;46.556;24.570;2024-01-30T15:26:54;4.20;;;1.60;;
84031;SDS011;74113;46.556;24.570;2024-01-30T15:29:23;5.30;;;2.30;;
84031;SDS011;74113;46.556;24.570;2024-01-30T15:31:52;3.70;;;2.00;;
84031;SDS011;74113;46.556;24.570;2024-01-30T15:36:49;5.30;;;2.60;;